sensor_id;sensor_type;location;lat;lon;timestamp;temperature;humidity
21417;DHT22;10869;52.238;10.716;2022-09-16T03:00:46;11.30;99.90
21417;DHT22;10869;52.238;10.716;2022-09-16T03:03:13;11.30;99.90
21417;DHT22;10869;52.238;10.716;2022-09-16T03:08:24;11.40;99.90
21417;DHT22;10869;52.238;10.716;2022-09-16T03:10:52;11.30;99.90
21417;DHT22;10869;52.238;10.716;2022-09-16T03:13:30;11.30;99.90
21417;DHT22;10869;52.238;10.716;2022-09-16T03:16:06;11.30;99.90
21417;DHT22;10869;52.238;10.716;2022-09-16T03:18:58;11.30;99.90
21417;DHT22;10869;52.238;10.716;2022-09-16T03:21:45;11.30;99.90
21417;DHT22;10869;52.238;10.716;2022-09-16T03:24:22;11.30;99.90
21417;DHT22;10869;52.238;10.716;2022-09-16T03:27:07;11.20;99.90
21417;DHT22;10869;52.238;10.716;2022-09-16T03:29:56;11.20;99.90
21417;DHT22;10869;52.238;10.716;2022-09-16T03:33:15;11.20;99.90
21417;DHT22;10869;52.238;10.716;2022-09-16T03:35:50;11.20;99.90
21417;DHT22;10869;52.238;10.716;2022-09-16T03:38:16;11.20;99.90
21417;DHT22;10869;52.238;10.716;2022-09-16T03:40:43;11.20;99.90
21417;DHT22;10869;52.238;10.716;2022-09-16T03:43:15;11.10;99.90
21417;DHT22;10869;52.238;10.716;2022-09-16T03:45:41;11.20;99.90
21417;DHT22;10869;52.238;10.716;2022-09-16T03:48:08;11.20;99.90
21417;DHT22;10869;52.238;10.716;2022-09-16T03:50:35;11.20;99.90
21417;DHT22;10869;52.238;10.716;2022-09-16T03:53:01;11.20;99.90
21417;DHT22;10869;52.238;10.716;2022-09-16T03:55:27;11.20;99.90
21417;DHT22;10869;52.238;10.716;2022-09-16T03:57:53;11.20;99.90
21417;DHT22;10869;52.238;10.716;2022-09-16T04:00:19;11.20;99.90
21417;DHT22;10869;52.238;10.716;2022-09-16T04:02:45;11.20;99.90
21417;DHT22;10869;52.238;10.716;2022-09-16T04:05:11;11.20;99.90
21417;DHT22;10869;52.238;10.716;2022-09-16T04:11:17;11.30;99.90
21417;DHT22;10869;52.238;10.716;2022-09-16T04:13:43;11.20;99.90
21417;DHT22;10869;52.238;10.716;2022-09-16T04:16:09;11.20;99.90
21417;DHT22;10869;52.238;10.716;2022-09-16T04:18:35;11.30;99.90
21417;DHT22;10869;52.238;10.716;2022-09-16T04:21:02;11.30;99.90
21417;DHT22;10869;52.238;10.716;2022-09-16T04:23:32;11.30;99.90
21417;DHT22;10869;52.238;10.716;2022-09-16T04:25:59;11.30;99.90
21417;DHT22;10869;52.238;10.716;2022-09-16T04:28:26;11.30;99.90
21417;DHT22;10869;52.238;10.716;2022-09-16T04:30:52;11.30;99.90
21417;DHT22;10869;52.238;10.716;2022-09-16T04:33:18;11.30;99.90
21417;DHT22;10869;52.238;10.716;2022-09-16T04:35:44;11.40;99.90
21417;DHT22;10869;52.238;10.716;2022-09-16T04:38:10;11.40;99.90
21417;DHT22;10869;52.238;10.716;2022-09-16T04:40:35;11.40;99.90
21417;DHT22;10869;52.238;10.716;2022-09-16T04:43:04;11.30;99.90
21417;DHT22;10869;52.238;10.716;2022-09-16T04:45:32;11.40;99.90
21417;DHT22;10869;52.238;10.716;2022-09-16T04:48:00;11.30;99.90
21417;DHT22;10869;52.238;10.716;2022-09-16T04:50:26;11.30;99.90
21417;DHT22;10869;52.238;10.716;2022-09-16T04:52:52;11.30;99.90
21417;DHT22;10869;52.238;10.716;2022-09-16T04:58:18;11.20;99.90
21417;DHT22;10869;52.238;10.716;2022-09-16T05:00:53;11.10;99.90
21417;DHT22;10869;52.238;10.716;2022-09-16T05:06:41;11.10;99.90
21417;DHT22;10869;52.238;10.716;2022-09-16T05:09:22;11.10;99.90
21417;DHT22;10869;52.238;10.716;2022-09-16T05:15:10;11.00;99.90
21417;DHT22;10869;52.238;10.716;2022-09-16T05:17:35;11.00;99.90
21417;DHT22;10869;52.238;10.716;2022-09-16T05:20:01;11.00;99.90
21417;DHT22;10869;52.238;10.716;2022-09-16T05:22:28;11.10;99.90
21417;DHT22;10869;52.238;10.716;2022-09-16T05:24:53;11.10;99.90
21417;DHT22;10869;52.238;10.716;2022-09-16T05:27:19;11.20;99.90
21417;DHT22;10869;52.238;10.716;2022-09-16T05:29:46;11.10;99.90
21417;DHT22;10869;52.238;10.716;2022-09-16T05:32:12;11.20;99.90
21417;DHT22;10869;52.238;10.716;2022-09-16T05:34:49;11.20;99.90
21417;DHT22;10869;52.238;10.716;2022-09-16T05:37:16;11.30;99.90
21417;DHT22;10869;52.238;10.716;2022-09-16T05:43:03;11.30;99.90
21417;DHT22;10869;52.238;10.716;2022-09-16T05:45:30;11.30;99.90
21417;DHT22;10869;52.238;10.716;2022-09-16T05:47:55;11.30;99.90
21417;DHT22;10869;52.238;10.716;2022-09-16T05:50:21;11.40;99.90
21417;DHT22;10869;52.238;10.716;2022-09-16T05:52:47;11.40;99.90
21417;DHT22;10869;52.238;10.716;2022-09-16T05:55:12;11.40;99.90
21417;DHT22;10869;52.238;10.716;2022-09-16T05:57:38;11.40;99.90
21417;DHT22;10869;52.238;10.716;2022-09-16T06:00:04;11.40;99.90
21417;DHT22;10869;52.238;10.716;2022-09-16T06:02:30;11.40;99.90
21417;DHT22;10869;52.238;10.716;2022-09-16T06:04:56;11.50;99.90
21417;DHT22;10869;52.238;10.716;2022-09-16T06:10:38;11.50;99.90
21417;DHT22;10869;52.238;10.716;2022-09-16T06:13:04;11.60;99.90
21417;DHT22;10869;52.238;10.716;2022-09-16T06:15:30;11.50;99.90
21417;DHT22;10869;52.238;10.716;2022-09-16T06:17:56;11.60;99.90
21417;DHT22;10869;52.238;10.716;2022-09-16T06:20:23;11.60;99.90
21417;DHT22;10869;52.238;10.716;2022-09-16T06:22:48;11.80;99.90
21417;DHT22;10869;52.238;10.716;2022-09-16T06:25:28;11.90;99.90
21417;DHT22;10869;52.238;10.716;2022-09-16T06:27:54;11.90;99.90
21417;DHT22;10869;52.238;10.716;2022-09-16T06:30:19;11.90;99.90
21417;DHT22;10869;52.238;10.716;2022-09-16T06:32:45;12.00;99.90
21417;DHT22;10869;52.238;10.716;2022-09-16T06:35:11;12.00;99.90
21417;DHT22;10869;52.238;10.716;2022-09-16T06:37:37;12.00;99.90
21417;DHT22;10869;52.238;10.716;2022-09-16T06:40:03;12.00;99.90
21417;DHT22;10869;52.238;10.716;2022-09-16T06:42:29;12.10;99.90
21417;DHT22;10869;52.238;10.716;2022-09-16T06:44:54;12.00;99.90
21417;DHT22;10869;52.238;10.716;2022-09-16T06:47:20;12.00;99.90
21417;DHT22;10869;52.238;10.716;2022-09-16T06:49:46;12.00;99.90
21417;DHT22;10869;52.238;10.716;2022-09-16T06:52:12;12.00;99.90
21417;DHT22;10869;52.238;10.716;2022-09-16T06:54:37;12.10;99.90
21417;DHT22;10869;52.238;10.716;2022-09-16T06:57:03;12.20;99.90
21417;DHT22;10869;52.238;10.716;2022-09-16T06:59:29;12.30;99.90
21417;DHT22;10869;52.238;10.716;2022-09-16T07:01:55;12.50;99.90
21417;DHT22;10869;52.238;10.716;2022-09-16T07:04:20;12.50;99.90
21417;DHT22;10869;52.238;10.716;2022-09-16T07:06:47;12.60;99.90
21417;DHT22;10869;52.238;10.716;2022-09-16T07:09:14;12.50;99.90
21417;DHT22;10869;52.238;10.716;2022-09-16T07:11:40;12.50;99.90
21417;DHT22;10869;52.238;10.716;2022-09-16T07:14:07;12.50;99.90
21417;DHT22;10869;52.238;10.716;2022-09-16T07:16:34;12.50;99.90
21417;DHT22;10869;52.238;10.716;2022-09-16T07:18:59;12.50;99.90
21417;DHT22;10869;52.238;10.716;2022-09-16T07:21:27;12.50;99.90
21417;DHT22;10869;52.238;10.716;2022-09-16T07:23:55;12.50;99.90
21417;DHT22;10869;52.238;10.716;2022-09-16T07:26:42;12.50;99.90
21417;DHT22;10869;52.238;10.716;2022-09-16T07:29:22;12.40;99.90
21417;DHT22;10869;52.238;10.716;2022-09-16T07:31:48;12.50;99.90
21417;DHT22;10869;52.238;10.716;2022-09-16T07:34:14;12.60;99.90
21417;DHT22;10869;52.238;10.716;2022-09-16T07:39:28;12.80;99.90
21417;DHT22;10869;52.238;10.716;2022-09-16T07:41:53;13.00;99.90
21417;DHT22;10869;52.238;10.716;2022-09-16T07:44:19;13.10;99.90
21417;DHT22;10869;52.238;10.716;2022-09-16T07:46:48;13.10;99.90
21417;DHT22;10869;52.238;10.716;2022-09-16T07:49:15;13.10;99.90
21417;DHT22;10869;52.238;10.716;2022-09-16T07:51:42;13.10;99.90
21417;DHT22;10869;52.238;10.716;2022-09-16T07:54:10;13.10;99.90
21417;DHT22;10869;52.238;10.716;2022-09-16T07:56:38;13.30;99.90
21417;DHT22;10869;52.238;10.716;2022-09-16T07:59:08;13.40;99.90
21417;DHT22;10869;52.238;10.716;2022-09-16T08:01:34;13.40;99.90
21417;DHT22;10869;52.238;10.716;2022-09-16T08:04:01;13.40;99.90
21417;DHT22;10869;52.238;10.716;2022-09-16T08:06:31;13.50;99.90
21417;DHT22;10869;52.238;10.716;2022-09-16T08:09:00;13.50;99.90
21417;DHT22;10869;52.238;10.716;2022-09-16T08:11:27;13.50;99.90
21417;DHT22;10869;52.238;10.716;2022-09-16T08:13:53;13.80;99.90
21417;DHT22;10869;52.238;10.716;2022-09-16T08:16:21;14.00;99.90
21417;DHT22;10869;52.238;10.716;2022-09-16T08:18:48;14.00;99.90
21417;DHT22;10869;52.238;10.716;2022-09-16T08:21:20;14.20;99.90
21417;DHT22;10869;52.238;10.716;2022-09-16T08:23:46;14.40;99.90
21417;DHT22;10869;52.238;10.716;2022-09-16T08:26:13;14.40;99.90
21417;DHT22;10869;52.238;10.716;2022-09-16T08:28:41;14.40;99.90
21417;DHT22;10869;52.238;10.716;2022-09-16T08:31:08;14.50;99.90
21417;DHT22;10869;52.238;10.716;2022-09-16T08:33:34;14.40;99.90
21417;DHT22;10869;52.238;10.716;2022-09-16T08:36:02;14.70;99.90
21417;DHT22;10869;52.238;10.716;2022-09-16T08:38:29;14.90;99.90
21417;DHT22;10869;52.238;10.716;2022-09-16T08:47:04;15.50;99.90
21417;DHT22;10869;52.238;10.716;2022-09-16T08:49:41;15.70;99.90
21417;DHT22;10869;52.238;10.716;2022-09-16T08:54:55;16.10;99.90
21417;DHT22;10869;52.238;10.716;2022-09-16T08:57:25;16.20;99.90
21417;DHT22;10869;52.238;10.716;2022-09-16T08:59:54;16.10;99.90
21417;DHT22;10869;52.238;10.716;2022-09-16T09:04:57;15.50;99.90
21417;DHT22;10869;52.238;10.716;2022-09-16T09:07:48;15.30;99.90
21417;DHT22;10869;52.238;10.716;2022-09-16T09:15:53;15.00;99.90
21417;DHT22;10869;52.238;10.716;2022-09-16T09:29:48;15.70;99.90
21417;DHT22;10869;52.238;10.716;2022-09-16T09:35:24;16.10;99.90
21417;DHT22;10869;52.238;10.716;2022-09-16T09:38:13;15.80;99.90
21417;DHT22;10869;52.238;10.716;2022-09-16T09:40:52;15.50;99.90
21417;DHT22;10869;52.238;10.716;2022-09-16T09:49:48;15.10;99.90
21417;DHT22;10869;52.238;10.716;2022-09-16T09:55:39;16.00;99.90
21417;DHT22;10869;52.238;10.716;2022-09-16T10:01:27;17.00;99.90
21417;DHT22;10869;52.238;10.716;2022-09-16T10:07:18;17.30;99.40
21417;DHT22;10869;52.238;10.716;2022-09-16T10:09:58;17.40;99.40
21417;DHT22;10869;52.238;10.716;2022-09-16T10:12:33;17.20;98.80
21417;DHT22;10869;52.238;10.716;2022-09-16T10:14:59;17.60;98.60
21417;DHT22;10869;52.238;10.716;2022-09-16T10:17:30;17.60;97.60
21417;DHT22;10869;52.238;10.716;2022-09-16T10:23:04;16.80;96.30
21417;DHT22;10869;52.238;10.716;2022-09-16T10:25:32;16.30;97.50
21417;DHT22;10869;52.238;10.716;2022-09-16T10:28:25;16.20;97.80
21417;DHT22;10869;52.238;10.716;2022-09-16T10:30:56;16.60;98.10
21417;DHT22;10869;52.238;10.716;2022-09-16T10:33:35;16.60;97.90
21417;DHT22;10869;52.238;10.716;2022-09-16T10:36:07;16.20;97.80
21417;DHT22;10869;52.238;10.716;2022-09-16T10:38:41;16.00;98.40
21417;DHT22;10869;52.238;10.716;2022-09-16T10:43:47;15.70;98.60
21417;DHT22;10869;52.238;10.716;2022-09-16T10:46:15;15.60;98.40
21417;DHT22;10869;52.238;10.716;2022-09-16T10:48:41;15.70;98.60
21417;DHT22;10869;52.238;10.716;2022-09-16T10:51:21;15.90;98.60
21417;DHT22;10869;52.238;10.716;2022-09-16T10:53:58;16.20;98.10
21417;DHT22;10869;52.238;10.716;2022-09-16T10:56:27;16.40;97.30
21417;DHT22;10869;52.238;10.716;2022-09-16T10:59:12;16.10;97.50
21417;DHT22;10869;52.238;10.716;2022-09-16T11:01:46;15.80;98.10
21417;DHT22;10869;52.238;10.716;2022-09-16T11:07:15;16.10;97.60
21417;DHT22;10869;52.238;10.716;2022-09-16T11:10:08;16.70;97.00
21417;DHT22;10869;52.238;10.716;2022-09-16T11:15:25;17.60;96.40
21417;DHT22;10869;52.238;10.716;2022-09-16T11:18:18;17.80;96.40
21417;DHT22;10869;52.238;10.716;2022-09-16T11:26:22;17.80;95.00
21417;DHT22;10869;52.238;10.716;2022-09-16T11:34:55;18.20;94.50
21417;DHT22;10869;52.238;10.716;2022-09-16T11:37:31;18.40;94.10
21417;DHT22;10869;52.238;10.716;2022-09-16T11:48:58;19.30;92.70
21417;DHT22;10869;52.238;10.716;2022-09-16T11:57:28;19.80;91.00
21417;DHT22;10869;52.238;10.716;2022-09-16T11:59:59;19.80;90.90
21417;DHT22;10869;52.238;10.716;2022-09-16T12:02:48;19.40;91.10
21417;DHT22;10869;52.238;10.716;2022-09-16T12:10:58;18.30;90.70
21417;DHT22;10869;52.238;10.716;2022-09-16T12:13:37;17.90;91.30
21417;DHT22;10869;52.238;10.716;2022-09-16T12:16:21;17.60;91.00
21417;DHT22;10869;52.238;10.716;2022-09-16T12:18:56;17.70;91.00
21417;DHT22;10869;52.238;10.716;2022-09-16T12:21:36;18.20;90.70
21417;DHT22;10869;52.238;10.716;2022-09-16T12:24:10;18.60;90.70
21417;DHT22;10869;52.238;10.716;2022-09-16T12:26:46;19.00;89.80
21417;DHT22;10869;52.238;10.716;2022-09-16T12:29:20;19.00;89.30
21417;DHT22;10869;52.238;10.716;2022-09-16T12:31:53;18.90;89.60
21417;DHT22;10869;52.238;10.716;2022-09-16T12:34:38;18.80;88.90
21417;DHT22;10869;52.238;10.716;2022-09-16T12:39:34;18.70;90.00
21417;DHT22;10869;52.238;10.716;2022-09-16T12:42:42;18.50;90.30
21417;DHT22;10869;52.238;10.716;2022-09-16T12:45:37;18.70;90.10
21417;DHT22;10869;52.238;10.716;2022-09-16T13:01:57;18.30;90.20
21417;DHT22;10869;52.238;10.716;2022-09-16T13:04:42;18.30;90.30
21417;DHT22;10869;52.238;10.716;2022-09-16T13:07:31;17.80;90.70
21417;DHT22;10869;52.238;10.716;2022-09-16T13:10:04;17.40;92.30
21417;DHT22;10869;52.238;10.716;2022-09-16T13:12:31;17.00;93.60
21417;DHT22;10869;52.238;10.716;2022-09-16T13:15:00;16.90;93.80
21417;DHT22;10869;52.238;10.716;2022-09-16T13:17:39;17.20;93.70
21417;DHT22;10869;52.238;10.716;2022-09-16T13:26:05;17.50;94.00
21417;DHT22;10869;52.238;10.716;2022-09-16T13:28:41;17.40;93.80
21417;DHT22;10869;52.238;10.716;2022-09-16T13:31:26;17.60;94.10
21417;DHT22;10869;52.238;10.716;2022-09-16T13:36:36;17.70;94.20
21417;DHT22;10869;52.238;10.716;2022-09-16T13:42:18;17.80;94.20
21417;DHT22;10869;52.238;10.716;2022-09-16T13:44:49;18.00;94.80
21417;DHT22;10869;52.238;10.716;2022-09-16T13:47:30;18.10;94.50
21417;DHT22;10869;52.238;10.716;2022-09-16T13:50:06;18.00;93.90
21417;DHT22;10869;52.238;10.716;2022-09-16T13:52:36;17.50;94.10
21417;DHT22;10869;52.238;10.716;2022-09-16T13:55:04;17.10;94.50
21417;DHT22;10869;52.238;10.716;2022-09-16T14:00:22;16.40;96.70
21417;DHT22;10869;52.238;10.716;2022-09-16T14:11:42;14.00;99.90
21417;DHT22;10869;52.238;10.716;2022-09-16T14:14:22;14.00;99.90
21417;DHT22;10869;52.238;10.716;2022-09-16T14:16:52;14.20;99.90
21417;DHT22;10869;52.238;10.716;2022-09-16T14:22:41;14.10;99.90
21417;DHT22;10869;52.238;10.716;2022-09-16T14:25:28;14.00;99.90
21417;DHT22;10869;52.238;10.716;2022-09-16T14:28:08;14.00;99.90
21417;DHT22;10869;52.238;10.716;2022-09-16T14:30:34;14.00;99.90
21417;DHT22;10869;52.238;10.716;2022-09-16T14:33:01;13.90;99.90
21417;DHT22;10869;52.238;10.716;2022-09-16T14:35:27;13.90;99.90
21417;DHT22;10869;52.238;10.716;2022-09-16T14:38:00;13.80;99.90
21417;DHT22;10869;52.238;10.716;2022-09-16T14:40:28;13.80;99.90
21417;DHT22;10869;52.238;10.716;2022-09-16T14:43:06;13.80;99.90
21417;DHT22;10869;52.238;10.716;2022-09-16T14:45:34;13.80;99.90
21417;DHT22;10869;52.238;10.716;2022-09-16T14:48:06;14.20;99.90
21417;DHT22;10869;52.238;10.716;2022-09-16T14:50:37;14.60;99.90
21417;DHT22;10869;52.238;10.716;2022-09-16T14:53:06;14.90;99.90
21417;DHT22;10869;52.238;10.716;2022-09-16T14:55:34;15.10;99.90
21417;DHT22;10869;52.238;10.716;2022-09-16T14:58:04;15.30;99.90
21417;DHT22;10869;52.238;10.716;2022-09-16T15:00:53;15.40;99.90
21417;DHT22;10869;52.238;10.716;2022-09-16T15:03:30;15.30;99.90
21417;DHT22;10869;52.238;10.716;2022-09-16T15:05:59;15.20;99.90
21417;DHT22;10869;52.238;10.716;2022-09-16T15:08:37;15.00;99.90
21417;DHT22;10869;52.238;10.716;2022-09-16T15:11:18;14.80;99.90
21417;DHT22;10869;52.238;10.716;2022-09-16T15:13:46;14.60;99.90
21417;DHT22;10869;52.238;10.716;2022-09-16T15:19:36;14.60;99.90
21417;DHT22;10869;52.238;10.716;2022-09-16T15:25:26;14.50;99.90
21417;DHT22;10869;52.238;10.716;2022-09-16T15:28:17;14.30;99.90
21417;DHT22;10869;52.238;10.716;2022-09-16T15:30:48;14.30;99.90
21417;DHT22;10869;52.238;10.716;2022-09-16T15:36:38;14.20;99.90
21417;DHT22;10869;52.238;10.716;2022-09-16T15:39:23;14.30;99.90
21417;DHT22;10869;52.238;10.716;2022-09-16T15:45:18;14.40;99.90
21417;DHT22;10869;52.238;10.716;2022-09-16T15:51:46;14.30;99.80
21417;DHT22;10869;52.238;10.716;2022-09-16T15:54:13;14.20;99.90
21417;DHT22;10869;52.238;10.716;2022-09-16T15:57:00;14.20;99.60
21417;DHT22;10869;52.238;10.716;2022-09-16T16:03:00;14.20;99.90
21417;DHT22;10869;52.238;10.716;2022-09-16T16:05:29;14.10;99.90
21417;DHT22;10869;52.238;10.716;2022-09-16T16:08:02;14.00;99.90
21417;DHT22;10869;52.238;10.716;2022-09-16T16:10:31;13.90;99.90
21417;DHT22;10869;52.238;10.716;2022-09-16T16:12:59;13.90;99.90
21417;DHT22;10869;52.238;10.716;2022-09-16T16:15:43;13.80;99.90
21417;DHT22;10869;52.238;10.716;2022-09-16T16:18:11;13.70;99.90
21417;DHT22;10869;52.238;10.716;2022-09-16T16:20:45;13.70;99.90
21417;DHT22;10869;52.238;10.716;2022-09-16T16:23:10;13.60;99.90
21417;DHT22;10869;52.238;10.716;2022-09-16T16:28:59;13.50;99.90
21417;DHT22;10869;52.238;10.716;2022-09-16T16:31:25;13.40;99.90
21417;DHT22;10869;52.238;10.716;2022-09-16T16:33:50;13.40;99.90
21417;DHT22;10869;52.238;10.716;2022-09-16T16:36:17;13.30;99.90
21417;DHT22;10869;52.238;10.716;2022-09-16T16:38:44;13.30;99.90
21417;DHT22;10869;52.238;10.716;2022-09-16T16:41:19;13.30;99.90
21417;DHT22;10869;52.238;10.716;2022-09-16T16:43:44;13.30;99.90
21417;DHT22;10869;52.238;10.716;2022-09-16T16:46:10;13.20;99.90
21417;DHT22;10869;52.238;10.716;2022-09-16T16:48:36;13.20;99.90
21417;DHT22;10869;52.238;10.716;2022-09-16T16:51:08;13.10;99.90
21417;DHT22;10869;52.238;10.716;2022-09-16T16:53:35;13.10;99.90
21417;DHT22;10869;52.238;10.716;2022-09-16T16:56:09;13.00;99.90
21417;DHT22;10869;52.238;10.716;2022-09-16T16:58:37;13.00;99.90
21417;DHT22;10869;52.238;10.716;2022-09-16T17:01:17;12.90;99.90
21417;DHT22;10869;52.238;10.716;2022-09-16T17:03:44;12.90;99.90
21417;DHT22;10869;52.238;10.716;2022-09-16T17:06:11;12.80;99.90
21417;DHT22;10869;52.238;10.716;2022-09-16T17:08:37;12.90;99.90
21417;DHT22;10869;52.238;10.716;2022-09-16T17:11:17;12.80;99.90
21417;DHT22;10869;52.238;10.716;2022-09-16T17:13:46;12.90;99.90
21417;DHT22;10869;52.238;10.716;2022-09-16T17:16:15;12.80;99.90
21417;DHT22;10869;52.238;10.716;2022-09-16T17:18:42;12.80;99.90
21417;DHT22;10869;52.238;10.716;2022-09-16T17:21:13;12.80;99.90
21417;DHT22;10869;52.238;10.716;2022-09-16T17:23:39;12.80;99.90
21417;DHT22;10869;52.238;10.716;2022-09-16T17:26:05;12.80;99.90
21417;DHT22;10869;52.238;10.716;2022-09-16T17:28:33;12.80;99.90
21417;DHT22;10869;52.238;10.716;2022-09-16T17:31:00;12.70;99.90
21417;DHT22;10869;52.238;10.716;2022-09-16T17:33:25;12.70;99.90
21417;DHT22;10869;52.238;10.716;2022-09-16T17:36:05;12.70;99.90
21417;DHT22;10869;52.238;10.716;2022-09-16T17:38:47;12.70;99.90
21417;DHT22;10869;52.238;10.716;2022-09-16T17:41:15;12.70;99.90
21417;DHT22;10869;52.238;10.716;2022-09-16T17:44:18;12.80;99.90
21417;DHT22;10869;52.238;10.716;2022-09-16T17:46:52;12.80;99.90
21417;DHT22;10869;52.238;10.716;2022-09-16T17:49:20;12.70;99.90
21417;DHT22;10869;52.238;10.716;2022-09-16T17:51:47;12.80;99.90
21417;DHT22;10869;52.238;10.716;2022-09-16T17:54:13;12.70;99.90
21417;DHT22;10869;52.238;10.716;2022-09-16T17:56:40;12.70;99.90
21417;DHT22;10869;52.238;10.716;2022-09-16T18:02:29;12.70;99.90
21417;DHT22;10869;52.238;10.716;2022-09-16T18:04:54;12.70;99.90
21417;DHT22;10869;52.238;10.716;2022-09-16T18:07:20;12.80;99.90
21417;DHT22;10869;52.238;10.716;2022-09-16T18:09:46;12.70;99.90
21417;DHT22;10869;52.238;10.716;2022-09-16T18:12:11;12.80;99.90
21417;DHT22;10869;52.238;10.716;2022-09-16T18:14:37;12.80;99.90
21417;DHT22;10869;52.238;10.716;2022-09-16T18:17:03;12.70;99.90
21417;DHT22;10869;52.238;10.716;2022-09-16T18:19:29;12.70;99.90
21417;DHT22;10869;52.238;10.716;2022-09-16T18:21:55;12.70;99.90
21417;DHT22;10869;52.238;10.716;2022-09-16T18:24:20;12.70;99.90
21417;DHT22;10869;52.238;10.716;2022-09-16T18:26:46;12.70;99.90
21417;DHT22;10869;52.238;10.716;2022-09-16T18:29:12;12.70;99.90
21417;DHT22;10869;52.238;10.716;2022-09-16T18:31:44;12.70;99.90
21417;DHT22;10869;52.238;10.716;2022-09-16T18:34:10;12.70;99.90
21417;DHT22;10869;52.238;10.716;2022-09-16T18:36:37;12.70;99.90
21417;DHT22;10869;52.238;10.716;2022-09-16T18:39:04;12.70;99.90
21417;DHT22;10869;52.238;10.716;2022-09-16T18:41:35;12.70;99.90
21417;DHT22;10869;52.238;10.716;2022-09-16T18:47:22;12.80;99.90
21417;DHT22;10869;52.238;10.716;2022-09-16T18:49:48;12.70;99.90
21417;DHT22;10869;52.238;10.716;2022-09-16T18:52:14;12.60;99.90
21417;DHT22;10869;52.238;10.716;2022-09-16T18:54:40;12.60;99.90
21417;DHT22;10869;52.238;10.716;2022-09-16T18:57:07;12.50;99.90
21417;DHT22;10869;52.238;10.716;2022-09-16T18:59:33;12.50;99.90
21417;DHT22;10869;52.238;10.716;2022-09-16T19:02:01;12.50;99.90
21417;DHT22;10869;52.238;10.716;2022-09-16T19:04:30;12.40;99.90
21417;DHT22;10869;52.238;10.716;2022-09-16T19:06:58;12.40;99.90
21417;DHT22;10869;52.238;10.716;2022-09-16T19:09:32;12.40;99.90
21417;DHT22;10869;52.238;10.716;2022-09-16T19:11:58;12.40;99.90
21417;DHT22;10869;52.238;10.716;2022-09-16T19:14:27;12.40;99.90
21417;DHT22;10869;52.238;10.716;2022-09-16T19:16:53;12.40;99.90
21417;DHT22;10869;52.238;10.716;2022-09-16T19:19:19;12.40;99.90
21417;DHT22;10869;52.238;10.716;2022-09-16T19:21:46;12.40;99.90
21417;DHT22;10869;52.238;10.716;2022-09-16T19:24:14;12.40;99.90
21417;DHT22;10869;52.238;10.716;2022-09-16T19:26:41;12.40;99.90
21417;DHT22;10869;52.238;10.716;2022-09-16T19:29:08;12.50;99.90
21417;DHT22;10869;52.238;10.716;2022-09-16T19:31:37;12.40;99.90
21417;DHT22;10869;52.238;10.716;2022-09-16T19:34:04;12.40;99.90
21417;DHT22;10869;52.238;10.716;2022-09-16T19:36:31;12.40;99.90
21417;DHT22;10869;52.238;10.716;2022-09-16T19:38:57;12.50;99.90
21417;DHT22;10869;52.238;10.716;2022-09-16T19:44:48;12.40;99.90
21417;DHT22;10869;52.238;10.716;2022-09-16T19:47:14;12.40;99.90
21417;DHT22;10869;52.238;10.716;2022-09-16T19:49:41;12.40;99.90
21417;DHT22;10869;52.238;10.716;2022-09-16T19:52:27;12.30;99.90
21417;DHT22;10869;52.238;10.716;2022-09-16T19:54:52;12.30;99.90
21417;DHT22;10869;52.238;10.716;2022-09-16T19:57:18;12.30;99.90
21417;DHT22;10869;52.238;10.716;2022-09-16T19:59:47;12.20;99.90
21417;DHT22;10869;52.238;10.716;2022-09-16T20:02:13;12.20;99.90
21417;DHT22;10869;52.238;10.716;2022-09-16T20:04:39;12.20;99.90
21417;DHT22;10869;52.238;10.716;2022-09-16T20:07:05;12.20;99.90
21417;DHT22;10869;52.238;10.716;2022-09-16T20:09:34;12.20;99.90
21417;DHT22;10869;52.238;10.716;2022-09-16T20:12:00;12.20;99.90
21417;DHT22;10869;52.238;10.716;2022-09-16T20:14:26;12.20;99.90
21417;DHT22;10869;52.238;10.716;2022-09-16T20:16:58;12.20;99.90
21417;DHT22;10869;52.238;10.716;2022-09-16T20:19:24;12.10;99.90
21417;DHT22;10869;52.238;10.716;2022-09-16T20:21:50;12.10;99.90
21417;DHT22;10869;52.238;10.716;2022-09-16T20:24:21;12.10;99.90
21417;DHT22;10869;52.238;10.716;2022-09-16T20:26:52;12.10;99.90
21417;DHT22;10869;52.238;10.716;2022-09-16T20:29:19;12.00;99.90
21417;DHT22;10869;52.238;10.716;2022-09-16T20:31:46;12.10;99.90
21417;DHT22;10869;52.238;10.716;2022-09-16T20:34:13;12.00;99.90
21417;DHT22;10869;52.238;10.716;2022-09-16T20:36:41;12.00;99.90
21417;DHT22;10869;52.238;10.716;2022-09-16T20:39:08;11.90;99.90
21417;DHT22;10869;52.238;10.716;2022-09-16T20:41:35;11.90;99.90
21417;DHT22;10869;52.238;10.716;2022-09-16T20:44:02;11.90;99.90
21417;DHT22;10869;52.238;10.716;2022-09-16T20:46:34;11.90;99.90
21417;DHT22;10869;52.238;10.716;2022-09-16T20:49:03;11.90;99.90
21417;DHT22;10869;52.238;10.716;2022-09-16T20:51:31;11.90;99.90
21417;DHT22;10869;52.238;10.716;2022-09-16T20:54:00;11.90;99.90
21417;DHT22;10869;52.238;10.716;2022-09-16T20:56:26;11.90;99.90
21417;DHT22;10869;52.238;10.716;2022-09-16T20:58:52;11.90;99.90
21417;DHT22;10869;52.238;10.716;2022-09-16T21:03:45;11.80;99.90
21417;DHT22;10869;52.238;10.716;2022-09-16T21:06:14;11.80;99.90
21417;DHT22;10869;52.238;10.716;2022-09-16T21:08:41;11.80;99.90
21417;DHT22;10869;52.238;10.716;2022-09-16T21:11:12;11.80;99.90
21417;DHT22;10869;52.238;10.716;2022-09-16T21:13:40;11.80;99.90
21417;DHT22;10869;52.238;10.716;2022-09-16T21:16:07;11.80;99.90
21417;DHT22;10869;52.238;10.716;2022-09-16T21:18:33;11.80;99.90
21417;DHT22;10869;52.238;10.716;2022-09-16T21:21:03;11.80;99.90
21417;DHT22;10869;52.238;10.716;2022-09-16T21:23:30;11.80;99.90
21417;DHT22;10869;52.238;10.716;2022-09-16T21:26:09;11.80;99.90
21417;DHT22;10869;52.238;10.716;2022-09-16T21:28:37;11.80;99.90
21417;DHT22;10869;52.238;10.716;2022-09-16T21:31:12;11.80;99.90
21417;DHT22;10869;52.238;10.716;2022-09-16T21:33:39;11.80;99.90
21417;DHT22;10869;52.238;10.716;2022-09-16T21:36:07;11.80;99.90
21417;DHT22;10869;52.238;10.716;2022-09-16T21:38:34;11.80;99.90
21417;DHT22;10869;52.238;10.716;2022-09-16T21:41:12;11.80;99.90
21417;DHT22;10869;52.238;10.716;2022-09-16T21:43:46;11.70;99.90
21417;DHT22;10869;52.238;10.716;2022-09-16T21:46:19;11.70;99.90
21417;DHT22;10869;52.238;10.716;2022-09-16T21:48:49;11.70;99.90
21417;DHT22;10869;52.238;10.716;2022-09-16T21:51:16;11.70;99.90